createdAt,value
2022-11-28T00:01:15.807Z,12.75
2022-11-28T00:03:42.337Z,10.43
2022-11-28T00:06:09.131Z,13.18
2022-11-28T00:08:37.168Z,8.93
2022-11-28T00:11:04.933Z,11.20
2022-11-28T00:13:31.335Z,38.85
2022-11-28T00:15:58.771Z,14.70
2022-11-28T00:18:25.332Z,8.60
2022-11-28T00:20:51.853Z,12.52
2022-11-28T00:23:18.759Z,9.27
2022-11-28T00:25:46.540Z,16.52
2022-11-28T00:28:12.987Z,10.23
2022-11-28T00:30:39.420Z,13.50
2022-11-28T00:33:05.872Z,10.55
2022-11-28T00:35:32.424Z,10.10
2022-11-28T00:37:58.836Z,11.43
2022-11-28T00:40:25.256Z,10.30
2022-11-28T00:42:53.031Z,10.82
2022-11-28T00:45:19.432Z,14.15
2022-11-28T00:47:46.476Z,10.93
2022-11-28T00:50:12.936Z,10.02
2022-11-28T00:52:39.400Z,18.48
2022-11-28T00:55:06.256Z,10.98
2022-11-28T00:57:32.677Z,11.85
2022-11-28T01:00:59.094Z,11.68
2022-11-28T01:04:24.308Z,8.57
2022-11-28T01:07:49.293Z,13.63
2022-11-28T01:11:14.276Z,12.48
2022-11-28T01:14:39.625Z,11.75
2022-11-28T01:17:07.611Z,11.77
2022-11-28T01:19:34.055Z,17.17
2022-11-28T01:22:00.516Z,11.50
2022-11-28T01:24:33.015Z,13.65
2022-11-28T01:26:59.423Z,13.85
2022-11-28T01:29:25.869Z,10.43
2022-11-28T01:31:52.376Z,13.10
2022-11-28T01:34:20.243Z,13.05
2022-11-28T01:36:55.533Z,12.90
2022-11-28T01:40:10.933Z,10.73
2022-11-28T01:42:37.492Z,14.10
2022-11-28T01:45:14.124Z,11.43
2022-11-28T01:47:43.376Z,9.75
2022-11-28T01:50:25.591Z,15.55
2022-11-28T01:53:11.091Z,11.23
2022-11-28T01:55:42.172Z,9.15
2022-11-28T01:59:06.772Z,16.27
2022-11-28T02:02:33.798Z,10.52
2022-11-28T02:06:00.435Z,10.40
2022-11-28T02:09:25.413Z,14.40
2022-11-28T02:13:13.948Z,12.07
2022-11-28T02:16:52.046Z,12.07
2022-11-28T02:20:53.984Z,13.45
2022-11-28T02:24:37.370Z,12.77
2022-11-28T02:28:28.562Z,11.13
2022-11-28T02:32:13.585Z,13.98
2022-11-28T02:35:50.033Z,11.38
2022-11-28T02:39:22.185Z,14.73
2022-11-28T02:42:05.220Z,10.95
2022-11-28T02:44:38.052Z,14.15
2022-11-28T02:47:13.964Z,9.38
2022-11-28T02:49:47.162Z,13.55
2022-11-28T02:52:17.588Z,10.52
2022-11-28T02:54:45.636Z,17.88
2022-11-28T02:58:11.193Z,12.52
2022-11-28T03:01:37.997Z,13.40
2022-11-28T03:05:07.980Z,13.27
2022-11-28T03:07:54.289Z,14.38
2022-11-28T03:11:27.221Z,14.27
2022-11-28T03:14:04.076Z,14.85
2022-11-28T03:16:38.540Z,14.05
2022-11-28T03:20:20.689Z,13.18
2022-11-28T03:23:51.960Z,9.75
2022-11-28T03:27:24.328Z,12.50
2022-11-28T03:30:54.846Z,13.88
2022-11-28T03:34:24.317Z,12.35
2022-11-28T03:37:54.950Z,9.75
2022-11-28T03:40:24.935Z,10.45
2022-11-28T03:42:58.241Z,13.02
2022-11-28T03:45:28.469Z,13.13
2022-11-28T03:47:58.457Z,17.13
2022-11-28T03:50:29.146Z,10.32
2022-11-28T03:53:01.111Z,12.30
2022-11-28T03:55:32.889Z,12.50
2022-11-28T03:58:07.215Z,16.38
2022-11-28T04:00:42.861Z,10.88
2022-11-28T04:04:14.173Z,12.20
2022-11-28T04:07:47.210Z,14.98
2022-11-28T04:11:19.358Z,13.68
2022-11-28T04:14:48.922Z,12.35
2022-11-28T04:18:20.409Z,13.93
2022-11-28T04:21:52.874Z,12.30
2022-11-28T04:25:22.939Z,10.20
2022-11-28T04:28:55.158Z,11.15
2022-11-28T04:35:51.610Z,14.10
2022-11-28T04:39:18.725Z,12.93
2022-11-28T04:42:53.009Z,24.77
2022-11-28T04:46:23.319Z,10.35
2022-11-28T04:49:48.423Z,11.00
2022-11-28T04:53:18.458Z,19.00
2022-11-28T04:56:50.521Z,12.48
2022-11-28T05:00:18.023Z,13.43
2022-11-28T05:02:47.693Z,13.52
2022-11-28T05:06:23.502Z,14.07
2022-11-28T05:09:48.596Z,17.10
2022-11-28T05:13:15.163Z,11.90
2022-11-28T05:16:40.189Z,14.25
2022-11-28T05:20:06.033Z,13.77
2022-11-28T05:23:30.998Z,12.32
2022-11-28T05:26:56.009Z,15.32
2022-11-28T05:30:22.366Z,14.13
2022-11-28T05:33:47.442Z,12.85
2022-11-28T05:37:13.222Z,11.80
2022-11-28T05:40:38.245Z,17.13
2022-11-28T05:44:03.250Z,12.63
2022-11-28T05:47:29.963Z,15.00
2022-11-28T05:50:54.854Z,13.98
2022-11-28T05:54:19.807Z,14.35
2022-11-28T05:57:44.800Z,13.88
2022-11-28T06:01:11.466Z,12.30
2022-11-28T06:04:37.835Z,20.17
2022-11-28T06:08:02.971Z,13.10
2022-11-28T06:11:28.962Z,13.57
2022-11-28T06:14:54.010Z,13.60
2022-11-28T06:18:18.959Z,14.95
2022-11-28T06:21:45.297Z,14.45
2022-11-28T06:25:10.273Z,12.07
2022-11-28T06:28:35.561Z,13.65
2022-11-28T06:32:00.739Z,15.02
2022-11-28T06:35:25.834Z,15.05
2022-11-28T06:38:52.357Z,14.43
2022-11-28T06:42:17.963Z,16.58
2022-11-28T06:45:42.994Z,14.82
2022-11-28T06:49:07.994Z,12.95
2022-11-28T06:52:32.959Z,18.60
2022-11-28T06:56:04.146Z,14.68
2022-11-28T06:59:29.207Z,30.38
2022-11-28T07:02:54.275Z,12.95
2022-11-28T07:06:19.339Z,15.93
2022-11-28T07:09:45.034Z,12.32
2022-11-28T07:13:12.054Z,14.07
2022-11-28T07:16:37.436Z,14.77
2022-11-28T07:20:03.182Z,19.52
2022-11-28T07:23:28.155Z,16.38
2022-11-28T07:26:56.404Z,13.55
2022-11-28T07:30:22.743Z,17.67
2022-11-28T07:33:48.623Z,15.50
2022-11-28T07:37:14.510Z,13.45
2022-11-28T07:40:39.451Z,14.93
2022-11-28T07:44:04.574Z,13.52
2022-11-28T07:47:33.572Z,10.23
2022-11-28T07:50:59.003Z,14.30
2022-11-28T07:54:24.326Z,12.27
2022-11-28T07:57:49.311Z,12.38
2022-11-28T08:01:15.832Z,12.27
2022-11-28T08:04:48.368Z,14.68
2022-11-28T08:08:14.615Z,13.98
2022-11-28T08:11:40.051Z,11.70
2022-11-28T08:15:05.767Z,11.30
2022-11-28T08:18:31.934Z,14.07
2022-11-28T08:22:02.658Z,12.30
2022-11-28T08:25:27.612Z,14.90
2022-11-28T08:28:52.922Z,14.68
2022-11-28T08:32:18.879Z,11.00
2022-11-28T08:35:43.830Z,12.57
2022-11-28T08:39:26.211Z,9.85
2022-11-28T08:42:51.219Z,14.05
2022-11-28T08:46:16.896Z,13.00
2022-11-28T08:49:42.790Z,10.52
2022-11-28T08:53:08.078Z,13.38
2022-11-28T08:56:34.828Z,12.65
2022-11-28T08:59:59.947Z,13.25
2022-11-28T09:03:24.934Z,19.42
2022-11-28T09:06:50.231Z,13.90
2022-11-28T09:10:15.269Z,12.63
2022-11-28T09:13:41.595Z,12.88
2022-11-28T09:17:06.721Z,10.88
2022-11-28T09:20:31.704Z,16.35
2022-11-28T09:23:56.700Z,14.85
2022-11-28T09:27:22.558Z,14.65
2022-11-28T09:30:48.974Z,17.02
2022-11-28T09:34:14.111Z,16.58
2022-11-28T09:37:39.068Z,15.98
2022-11-28T09:41:19.211Z,12.68
2022-11-28T09:44:46.589Z,12.30
2022-11-28T09:48:27.750Z,13.95
2022-11-28T09:51:56.719Z,14.25
2022-11-28T09:55:30.791Z,14.35
2022-11-28T09:58:56.709Z,13.70
2022-11-28T10:02:31.008Z,13.13
2022-11-28T10:06:06.819Z,16.45
2022-11-28T10:09:41.431Z,33.95
2022-11-28T10:13:32.714Z,13.73
2022-11-28T10:17:14.517Z,14.13
2022-11-28T10:20:45.455Z,14.10
2022-11-28T10:24:15.167Z,15.30
2022-11-28T10:27:43.607Z,15.43
2022-11-28T10:31:19.736Z,13.05
2022-11-28T10:34:51.391Z,13.35
2022-11-28T10:38:18.891Z,17.23
2022-11-28T10:41:52.721Z,16.67
2022-11-28T10:45:28.018Z,13.38
2022-11-28T10:49:05.815Z,15.25
2022-11-28T10:52:42.668Z,18.10
2022-11-28T10:56:20.824Z,12.15
2022-11-28T10:59:56.427Z,11.55
2022-11-28T11:03:30.475Z,17.02
2022-11-28T11:07:09.058Z,15.50
2022-11-28T11:10:39.620Z,12.50
2022-11-28T11:14:11.387Z,13.55
2022-11-28T11:17:46.628Z,14.90
2022-11-28T11:21:25.613Z,14.68
2022-11-28T11:25:14.141Z,16.02
2022-11-28T11:28:47.699Z,18.08
2022-11-28T11:32:19.467Z,16.38
2022-11-28T11:35:46.938Z,14.55
2022-11-28T11:39:21.032Z,19.77
2022-11-28T11:42:51.841Z,15.60
2022-11-28T11:46:25.275Z,15.07
2022-11-28T11:49:50.845Z,18.83
2022-11-28T11:53:19.432Z,17.40
2022-11-28T11:57:00.639Z,12.90
2022-11-28T12:00:39.758Z,14.77
2022-11-28T12:04:43.380Z,14.23
2022-11-28T12:08:04.990Z,15.77
2022-11-28T12:11:36.231Z,14.30
2022-11-28T12:15:03.686Z,16.52
2022-11-28T12:18:41.840Z,18.17
2022-11-28T12:22:16.145Z,21.25
2022-11-28T12:25:48.779Z,34.47
2022-11-28T12:29:28.081Z,21.50
2022-11-28T12:33:03.315Z,17.63
2022-11-28T12:36:36.287Z,17.67
2022-11-28T12:40:24.382Z,13.63
2022-11-28T12:44:08.258Z,14.32
2022-11-28T12:47:41.962Z,16.42
2022-11-28T12:51:18.366Z,15.23
2022-11-28T12:55:00.382Z,20.35
2022-11-28T12:58:29.914Z,19.65
2022-11-28T13:02:10.142Z,17.20
2022-11-28T13:05:51.994Z,18.52
2022-11-28T13:09:30.366Z,20.83
2022-11-28T13:13:03.607Z,20.38
2022-11-28T13:16:44.738Z,17.83
2022-11-28T13:20:18.671Z,20.75
2022-11-28T13:23:55.716Z,26.70
2022-11-28T13:27:33.795Z,16.02
2022-11-28T13:31:06.609Z,21.48
2022-11-28T13:34:49.362Z,21.27
2022-11-28T13:38:36.174Z,17.35
2022-11-28T13:42:59.614Z,15.30
2022-11-28T13:46:00.589Z,18.60
2022-11-28T13:49:45.775Z,22.98
2022-11-28T13:53:30.576Z,22.38
2022-11-28T13:57:19.066Z,18.70
2022-11-28T14:04:24.175Z,26.75
2022-11-28T14:07:56.059Z,25.48
2022-11-28T14:11:56.281Z,22.80
2022-11-28T14:15:42.595Z,18.00
2022-11-28T14:19:24.986Z,16.88
2022-11-28T14:23:10.644Z,14.40
2022-11-28T14:26:40.168Z,14.20
2022-11-28T14:30:25.429Z,16.25
2022-11-28T14:33:56.842Z,15.57
2022-11-28T14:37:48.200Z,16.33
2022-11-28T14:41:32.708Z,17.52
2022-11-28T14:45:31.447Z,21.40
2022-11-28T14:49:16.908Z,23.95
2022-11-28T14:53:15.644Z,22.17
2022-11-28T14:56:43.603Z,19.95
2022-11-28T15:00:13.745Z,27.83
2022-11-28T15:03:55.393Z,21.52
2022-11-28T15:07:31.707Z,24.15
2022-11-28T15:11:12.405Z,18.13
2022-11-28T15:14:47.163Z,16.27
2022-11-28T15:18:13.121Z,18.80
2022-11-28T15:21:44.632Z,21.10
2022-11-28T15:25:20.664Z,19.33
2022-11-28T15:28:47.210Z,28.20
2022-11-28T15:32:18.853Z,22.05
2022-11-28T15:35:55.497Z,19.30
2022-11-28T15:39:31.591Z,19.55
2022-11-28T15:43:02.358Z,19.05
2022-11-28T15:46:30.254Z,22.20
2022-11-28T15:50:00.161Z,19.27
2022-11-28T15:53:25.650Z,22.17
2022-11-28T15:57:05.462Z,22.23
2022-11-28T16:00:32.741Z,19.35
2022-11-28T16:03:59.732Z,16.95
2022-11-28T16:07:27.014Z,22.55
2022-11-28T16:10:55.190Z,19.00
2022-11-28T16:14:22.134Z,19.17
2022-11-28T16:17:48.984Z,16.77
2022-11-28T16:21:19.289Z,16.20
2022-11-28T16:24:46.003Z,17.10
2022-11-28T16:28:30.132Z,16.98
2022-11-28T16:32:05.318Z,19.30
2022-11-28T16:35:45.198Z,17.27
2022-11-28T16:39:14.760Z,18.35
2022-11-28T16:42:51.330Z,22.60
2022-11-28T16:46:19.898Z,22.33
2022-11-28T16:50:00.947Z,20.92
2022-11-28T16:53:45.213Z,19.42
2022-11-28T16:57:21.837Z,22.35
2022-11-28T17:00:51.581Z,26.63
2022-11-28T17:04:39.611Z,21.90
2022-11-28T17:08:07.763Z,19.60
2022-11-28T17:11:33.579Z,22.45
2022-11-28T17:14:58.691Z,20.88
2022-11-28T17:18:23.922Z,18.13
2022-11-28T17:21:51.525Z,24.98
2022-11-28T17:25:19.332Z,32.80
2022-11-28T17:28:44.647Z,27.55
2022-11-28T17:32:11.259Z,23.70
2022-11-28T17:35:38.787Z,23.92
2022-11-28T17:39:05.509Z,23.40
2022-11-28T17:42:30.512Z,20.88
2022-11-28T17:45:55.625Z,25.67
2022-11-28T17:49:21.006Z,18.52
2022-11-28T17:52:49.127Z,21.55
2022-11-28T17:56:15.595Z,24.00
2022-11-28T17:59:41.313Z,26.65
2022-11-28T18:03:09.047Z,21.67
2022-11-28T18:06:35.099Z,19.17
2022-11-28T18:10:01.992Z,17.70
2022-11-28T18:13:28.703Z,18.48
2022-11-28T18:16:54.215Z,19.55
2022-11-28T18:20:19.266Z,25.17
2022-11-28T18:23:45.386Z,27.08
2022-11-28T18:27:11.213Z,23.27
2022-11-28T18:30:40.092Z,21.95
2022-11-28T18:34:06.220Z,25.73
2022-11-28T18:37:32.688Z,22.65
2022-11-28T18:41:02.449Z,25.05
2022-11-28T18:44:27.429Z,30.70
2022-11-28T18:47:58.680Z,26.67
2022-11-28T18:51:26.311Z,22.33
2022-11-28T18:54:52.469Z,24.67
2022-11-28T18:58:17.758Z,21.33
2022-11-28T19:01:42.874Z,18.27
2022-11-28T19:05:10.370Z,20.38
2022-11-28T19:08:36.118Z,23.15
2022-11-28T19:12:01.448Z,32.85
2022-11-28T19:15:26.533Z,30.33
2022-11-28T19:18:52.041Z,30.33
2022-11-28T19:22:19.353Z,30.15
2022-11-28T19:25:44.289Z,33.35
2022-11-28T19:29:09.716Z,27.70
2022-11-28T19:32:35.482Z,30.38
2022-11-28T19:36:01.713Z,41.45
2022-11-28T19:39:28.057Z,34.92
2022-11-28T19:42:53.385Z,40.30
2022-11-28T19:46:19.112Z,37.33
2022-11-28T19:49:44.471Z,30.02
2022-11-28T19:53:09.581Z,34.05
2022-11-28T19:56:36.329Z,27.45
2022-11-28T20:00:01.903Z,21.85
2022-11-28T20:03:26.923Z,18.13
2022-11-28T20:06:52.137Z,17.33
2022-11-28T20:10:17.183Z,16.08
2022-11-28T20:13:44.336Z,13.43
2022-11-28T20:17:10.407Z,11.48
2022-11-28T20:20:35.541Z,13.65
2022-11-28T20:24:01.921Z,14.82
2022-11-28T20:27:27.041Z,17.08
2022-11-28T20:30:53.434Z,19.50
2022-11-28T20:34:18.567Z,16.77
2022-11-28T20:37:49.378Z,22.63
2022-11-28T20:41:15.251Z,22.00
2022-11-28T20:44:40.259Z,22.92
2022-11-28T20:48:06.678Z,17.55
2022-11-28T20:51:32.734Z,29.50
2022-11-28T20:54:58.343Z,19.58
2022-11-28T20:58:23.327Z,20.58
2022-11-28T21:01:48.422Z,18.23
2022-11-28T21:05:15.477Z,17.20
2022-11-28T21:08:40.506Z,18.13
2022-11-28T21:12:06.283Z,13.43
2022-11-28T21:15:31.563Z,18.55
2022-11-28T21:18:57.490Z,16.70
2022-11-28T21:22:25.206Z,32.90
2022-11-28T21:25:50.191Z,15.57
2022-11-28T21:29:16.466Z,14.60
2022-11-28T21:32:42.123Z,17.67
2022-11-28T21:36:07.799Z,14.32
2022-11-28T21:39:34.263Z,17.08
2022-11-28T21:42:59.665Z,12.35
2022-11-28T21:46:25.886Z,15.98
2022-11-28T21:49:50.843Z,12.30
2022-11-28T21:53:16.905Z,15.13
2022-11-28T21:56:43.487Z,29.40
2022-11-28T22:00:13.626Z,16.23
2022-11-28T22:03:50.798Z,14.43
2022-11-28T22:07:16.906Z,13.75
2022-11-28T22:10:41.892Z,14.48
2022-11-28T22:14:08.350Z,12.85
2022-11-28T22:17:33.796Z,16.55
2022-11-28T22:21:00.769Z,13.38
2022-11-28T22:24:26.425Z,12.20
2022-11-28T22:27:53.157Z,20.88
2022-11-28T22:31:19.583Z,14.45
2022-11-28T22:34:44.808Z,12.88
2022-11-28T22:38:10.553Z,13.80
2022-11-28T22:41:35.550Z,13.43
2022-11-28T22:45:01.074Z,24.30
2022-11-28T22:48:28.382Z,18.42
2022-11-28T22:51:53.649Z,14.40
2022-11-28T22:55:18.688Z,16.92
2022-11-28T22:58:44.457Z,17.13
2022-11-28T23:02:10.371Z,15.77
2022-11-28T23:05:37.417Z,33.85
2022-11-28T23:09:04.945Z,15.98
2022-11-28T23:12:30.837Z,18.80
2022-11-28T23:15:55.888Z,12.02
2022-11-28T23:19:20.824Z,19.15
2022-11-28T23:22:47.919Z,20.25
2022-11-28T23:26:14.188Z,20.50
2022-11-28T23:29:39.849Z,31.35
2022-11-28T23:33:04.808Z,28.92
2022-11-28T23:36:30.680Z,21.08
2022-11-28T23:39:59.164Z,15.98
2022-11-28T23:43:24.184Z,17.85
2022-11-28T23:46:49.140Z,13.73
2022-11-28T23:50:14.169Z,12.82
2022-11-28T23:53:39.630Z,17.05
2022-11-28T23:57:07.265Z,14.00
